Time;durP1;ratioP1;P1;durP2;ratioP2;P2;SDS_P1;SDS_P2;PMS_P1;PMS_P2;Temp;Humidity;BMP_temperature;BMP_pressure;BME280_temperature;BME280_humidity;BME280_pressure;Samples;Min_cycle;Max_cycle;Signal;HPM_P1;HPM_P2
2022/01/04 00:01:16;;;;;;;22.83;15.27;;;;;;;6.57;67.36;95205.34;5008751;28;20038;-61
2022/01/04 00:03:42;;;;;;;23.92;15.23;;;;;;;6.55;67.36;95194.34;5008111;28;20037;-61
2022/01/04 00:06:08;;;;;;;26.42;15.80;;;;;;;6.51;67.84;95194.53;5008598;28;20083;-61
2022/01/04 00:08:34;;;;;;;25.85;17.98;;;;;;;6.37;68.49;95198.53;5006900;28;20073;-61
2022/01/04 00:11:15;;;;;;;24.63;17.23;;;;;;;6.27;68.64;95202.41;5008533;28;20470;-62
2022/01/04 00:13:41;;;;;;;27.23;17.85;;;;;;;6.18;69.20;95197.66;5008289;28;20030;-62
2022/01/04 00:16:07;;;;;;;26.52;17.67;;;;;;;6.12;69.15;95200.50;5008018;28;20408;-60
2022/01/04 00:18:34;;;;;;;26.13;16.10;;;;;;;5.98;69.47;95188.28;5007865;28;20201;-62
2022/01/04 00:21:00;;;;;;;29.77;18.02;;;;;;;6.02;69.75;95200.88;5008014;28;20037;-61
2022/01/04 00:23:26;;;;;;;27.50;17.05;;;;;;;6.04;69.96;95208.50;5008622;28;20036;-60
2022/01/04 00:25:51;;;;;;;26.10;16.70;;;;;;;6.11;69.85;95201.41;5008039;28;20120;-62
2022/01/04 00:28:17;;;;;;;21.60;15.95;;;;;;;6.12;69.17;95219.25;5007993;28;20049;-60
2022/01/04 00:30:43;;;;;;;23.50;16.35;;;;;;;5.99;69.61;95216.38;5007980;28;20045;-60
2022/01/04 00:33:11;;;;;;;34.15;20.52;;;;;;;5.66;70.07;95190.44;5005870;28;20041;-60
2022/01/04 00:35:38;;;;;;;33.88;21.05;;;;;;;5.58;70.60;95213.75;5008107;28;20034;-61
2022/01/04 00:38:05;;;;;;;39.17;24.90;;;;;;;5.53;70.61;95231.84;5008142;28;20030;-61
2022/01/04 00:40:30;;;;;;;43.80;27.67;;;;;;;5.11;71.29;95191.69;5007714;28;20034;-61
2022/01/04 00:42:58;;;;;;;46.63;30.10;;;;;;;5.08;71.71;95209.75;5008466;28;20030;-61
2022/01/04 00:45:27;;;;;;;52.45;31.50;;;;;;;5.07;71.78;95223.41;5007693;28;20492;-62
2022/01/04 00:50:22;;;;;;;54.53;32.97;;;;;;;4.84;72.59;95241.31;5012574;28;20034;-62
2022/01/04 00:52:48;;;;;;;48.20;31.90;;;;;;;4.72;73.47;95237.47;5011949;28;20046;-62
2022/01/04 00:55:14;;;;;;;57.17;33.58;;;;;;;4.74;73.04;95230.63;5011746;28;20111;-61
2022/01/04 00:57:40;;;;;;;55.53;34.22;;;;;;;4.86;73.32;95219.94;5011987;28;20101;-60
2022/01/04 01:00:08;;;;;;;50.67;31.08;;;;;;;4.95;73.44;95209.38;5011698;28;20665;-61
2022/01/04 01:02:33;;;;;;;46.55;30.73;;;;;;;4.94;72.67;95196.66;5011727;28;20113;-60
2022/01/04 01:04:59;;;;;;;46.67;29.92;;;;;;;5.04;73.00;95215.03;5010947;28;20137;-60
2022/01/04 01:07:24;;;;;;;45.25;28.13;;;;;;;5.12;72.78;95210.44;5011813;28;20033;-61
2022/01/04 01:10:17;;;;;;;45.03;29.85;;;;;;;5.14;72.28;95201.81;5010334;28;20036;-62
2022/01/04 01:12:43;;;;;;;46.88;28.63;;;;;;;5.04;72.59;95204.81;5011225;28;20125;-60
2022/01/04 01:15:09;;;;;;;43.80;29.27;;;;;;;4.87;73.57;95210.53;5011047;28;20156;-61
2022/01/04 01:17:35;;;;;;;44.45;27.83;;;;;;;4.67;73.71;95183.19;5011498;28;20026;-61
2022/01/04 01:20:01;;;;;;;42.28;28.83;;;;;;;4.47;73.19;95145.63;5011730;28;20139;-62
2022/01/04 01:22:27;;;;;;;52.45;31.50;;;;;;;4.49;73.87;95179.59;5011220;28;20040;-60
2022/01/04 01:24:52;;;;;;;55.95;33.53;;;;;;;4.60;73.91;95206.38;5011467;28;20026;-62
2022/01/04 01:27:18;;;;;;;54.95;33.88;;;;;;;4.40;74.49;95181.59;5010597;28;20545;-62
2022/01/04 01:29:43;;;;;;;49.88;31.58;;;;;;;4.49;74.78;95210.22;5011148;28;20030;-60
2022/01/04 01:32:09;;;;;;;53.25;31.48;;;;;;;4.31;74.37;95191.28;5011074;28;20111;-61
2022/01/04 01:34:35;;;;;;;50.80;31.50;;;;;;;4.38;74.15;95198.69;5009833;28;20497;-62
2022/01/04 01:37:00;;;;;;;51.85;32.35;;;;;;;4.11;74.62;95166.47;5011520;28;20716;-61
2022/01/04 01:39:26;;;;;;;48.63;31.10;;;;;;;4.19;74.88;95202.78;5010778;28;20496;-61
2022/01/04 01:41:51;;;;;;;47.42;29.50;;;;;;;4.14;74.84;95202.94;5010976;28;20100;-61
2022/01/04 01:44:17;;;;;;;49.58;29.58;;;;;;;4.17;75.12;95207.94;5010941;28;20033;-62
2022/01/04 01:46:42;;;;;;;51.33;32.30;;;;;;;4.16;75.67;95223.28;5010697;28;20034;-61
2022/01/04 01:49:08;;;;;;;46.45;30.58;;;;;;;3.92;75.69;95187.53;5010825;28;20030;-66
2022/01/04 01:51:33;;;;;;;44.45;28.23;;;;;;;3.98;75.35;95199.25;5010374;28;20105;-61
2022/01/04 01:54:00;;;;;;;50.70;30.50;;;;;;;3.97;75.72;95197.59;5011030;28;20041;-61
2022/01/04 01:56:26;;;;;;;44.22;27.75;;;;;;;3.78;76.02;95180.34;5010639;28;20117;-62
2022/01/04 01:58:52;;;;;;;44.78;28.00;;;;;;;3.63;76.30;95163.00;5010254;28;20034;-60
2022/01/04 02:01:17;;;;;;;42.63;26.58;;;;;;;3.83;75.48;95152.13;5010144;28;20033;-61
2022/01/04 02:03:43;;;;;;;45.20;27.45;;;;;;;4.17;75.33;95190.06;5010184;28;20104;-61
2022/01/04 02:06:09;;;;;;;41.45;27.10;;;;;;;4.35;74.99;95210.72;5008932;28;20030;-61
2022/01/04 02:08:35;;;;;;;42.63;26.70;;;;;;;4.50;74.08;95205.06;5010362;28;20045;-61
2022/01/04 02:11:01;;;;;;;47.25;28.67;;;;;;;4.49;74.35;95198.28;5009865;28;20092;-61
2022/01/04 02:13:27;;;;;;;38.00;24.63;;;;;;;4.32;74.25;95157.22;5010590;28;20030;-60
2022/01/04 02:15:53;;;;;;;39.50;26.02;;;;;;;4.53;73.89;95192.19;5009718;28;20025;-60
2022/01/04 02:18:18;;;;;;;41.88;25.30;;;;;;;4.42;74.77;95199.41;5010150;28;20026;-61
2022/01/04 02:20:44;;;;;;;38.33;26.23;;;;;;;4.38;74.57;95203.78;5009922;28;20033;-61
2022/01/04 02:23:09;;;;;;;37.47;24.40;;;;;;;4.24;75.23;95201.72;5010413;28;20102;-60
2022/01/04 02:25:35;;;;;;;41.47;26.33;;;;;;;3.82;76.12;95158.94;5010333;28;20030;-59
2022/01/04 02:28:01;;;;;;;43.40;26.02;;;;;;;3.99;76.40;95206.03;5009450;28;20121;-61
2022/01/04 02:30:26;;;;;;;39.20;24.23;;;;;;;3.95;76.19;95189.13;5009848;28;20036;-61
2022/01/04 02:32:52;;;;;;;42.85;24.90;;;;;;;3.95;76.42;95199.34;5010350;28;20465;-61
2022/01/04 02:35:20;;;;;;;43.88;25.33;;;;;;;4.04;76.46;95199.03;5010104;28;20057;-60
2022/01/04 02:37:46;;;;;;;37.97;25.58;;;;;;;3.98;76.02;95182.19;5009875;28;20030;-60
2022/01/04 02:40:12;;;;;;;39.17;25.27;;;;;;;3.98;76.43;95192.41;5009359;28;20144;-61
2022/01/04 02:42:38;;;;;;;38.90;25.15;;;;;;;4.08;76.67;95198.03;5009716;28;20160;-60
2022/01/04 02:45:04;;;;;;;38.47;25.58;;;;;;;4.11;76.18;95194.56;5008410;28;20109;-62
2022/01/04 02:47:30;;;;;;;41.72;26.05;;;;;;;4.10;75.83;95183.53;5009713;28;20032;-60
2022/01/04 02:49:56;;;;;;;42.95;24.98;;;;;;;4.10;75.89;95178.41;5009543;28;20657;-60
2022/01/04 02:52:21;;;;;;;41.58;23.55;;;;;;;4.15;76.03;95188.44;5009244;28;20018;-60
2022/01/04 02:54:47;;;;;;;35.88;22.50;;;;;;;4.19;75.62;95182.34;5009524;28;20040;-61
2022/01/04 02:57:12;;;;;;;36.67;22.33;;;;;;;4.12;75.73;95178.38;5009485;28;20042;-61
2022/01/04 02:59:38;;;;;;;36.33;22.30;;;;;;;4.03;76.14;95189.69;5009479;28;20108;-60
2022/01/04 03:02:04;;;;;;;37.25;21.52;;;;;;;3.98;75.72;95178.81;5009342;28;20022;-60
2022/01/04 03:04:30;;;;;;;31.98;21.50;;;;;;;3.92;76.49;95174.78;5009121;28;20037;-59
2022/01/04 03:06:55;;;;;;;36.53;22.13;;;;;;;3.89;76.76;95174.88;5009295;28;20037;-61
2022/01/04 03:09:21;;;;;;;35.72;22.95;;;;;;;3.86;76.72;95173.25;5009529;28;20451;-61
2022/01/04 03:11:47;;;;;;;38.28;21.25;;;;;;;3.90;76.88;95176.53;5008367;28;20420;-62
2022/01/04 03:14:12;;;;;;;36.22;22.73;;;;;;;3.61;76.91;95134.19;5009237;28;20037;-62
2022/01/04 03:16:37;;;;;;;32.95;22.25;;;;;;;3.89;76.73;95172.34;5008483;28;20042;-61
2022/01/04 03:19:06;;;;;;;38.33;23.48;;;;;;;3.89;76.65;95177.44;5009328;28;20041;-61
2022/01/04 03:21:36;;;;;;;35.55;22.60;;;;;;;3.92;76.58;95177.34;5008922;28;20037;-62
2022/01/04 03:24:03;;;;;;;39.42;23.00;;;;;;;3.97;76.92;95179.72;5009167;28;20486;-61
2022/01/04 03:26:29;;;;;;;35.17;23.00;;;;;;;3.91;76.50;95167.19;5008870;28;20533;-63
2022/01/04 03:28:55;;;;;;;33.35;22.02;;;;;;;3.98;76.50;95173.72;5008539;28;20512;-61
2022/01/04 03:31:21;;;;;;;35.20;20.58;;;;;;;3.91;75.57;95157.78;5008886;28;20033;-61
2022/01/04 03:33:46;;;;;;;34.53;21.33;;;;;;;3.96;75.43;95171.22;5008573;28;20037;-60
2022/01/04 03:36:12;;;;;;;32.50;21.40;;;;;;;4.00;75.44;95192.34;5008514;28;20140;-61
2022/01/04 03:38:38;;;;;;;45.50;28.30;;;;;;;3.63;76.01;95148.53;5009293;28;20109;-60
2022/01/04 03:41:07;;;;;;;43.47;28.70;;;;;;;3.81;76.78;95182.78;5008331;28;20474;-60
2022/01/04 03:43:33;;;;;;;45.45;28.60;;;;;;;3.70;76.76;95179.75;5008851;28;20426;-60
2022/01/04 03:45:59;;;;;;;47.42;30.50;;;;;;;3.64;77.21;95196.13;5008567;28;20026;-63
2022/01/04 03:48:24;;;;;;;52.17;31.45;;;;;;;3.58;77.31;95200.59;5008621;28;20032;-62
2022/01/04 03:50:50;;;;;;;49.90;31.25;;;;;;;3.32;77.50;95174.22;5008416;28;20105;-61
2022/01/04 03:53:15;;;;;;;56.58;32.30;;;;;;;3.40;77.57;95195.19;5008023;28;20117;-61
2022/01/04 03:55:41;;;;;;;49.03;30.92;;;;;;;3.30;77.90;95204.00;5008452;28;20088;-63
2022/01/04 03:58:06;;;;;;;50.13;31.15;;;;;;;3.04;78.25;95182.72;5008153;28;20115;-60
2022/01/04 04:00:32;;;;;;;49.95;32.17;;;;;;;3.15;78.34;95202.78;5008437;28;20034;-62
2022/01/04 04:02:57;;;;;;;51.63;32.58;;;;;;;3.13;78.00;95200.28;5007901;28;20129;-62
2022/01/04 04:05:22;;;;;;;52.80;33.80;;;;;;;2.84;78.11;95172.31;5007916;28;20034;-61
2022/01/04 04:07:48;;;;;;;56.83;32.92;;;;;;;2.88;78.06;95192.53;5008241;28;20624;-61
2022/01/04 04:10:13;;;;;;;54.33;34.78;;;;;;;2.58;78.41;95169.66;5008423;28;20030;-62
2022/01/04 04:12:39;;;;;;;56.90;38.17;;;;;;;2.46;78.64;95172.56;5008062;28;20026;-61
2022/01/04 04:15:08;;;;;;;61.33;36.70;;;;;;;2.50;78.98;95193.66;5008209;28;20029;-61
2022/01/04 04:17:35;;;;;;;55.35;36.13;;;;;;;2.39;79.43;95181.25;5023322;28;20033;-61
2022/01/04 04:20:01;;;;;;;60.25;36.22;;;;;;;2.47;79.74;95196.31;5007807;28;20034;-61
2022/01/04 04:22:27;;;;;;;61.38;35.58;;;;;;;2.43;79.66;95195.56;5007007;28;20095;-60
2022/01/04 04:24:52;;;;;;;60.85;36.60;;;;;;;2.46;79.35;95197.16;5008136;28;20033;-61
2022/01/04 04:27:18;;;;;;;54.17;32.33;;;;;;;2.28;79.48;95173.94;5007541;28;20040;-61
2022/01/04 04:29:43;;;;;;;52.47;32.17;;;;;;;2.44;79.96;95199.75;5006820;28;20123;-61
2022/01/04 04:32:10;;;;;;;52.53;32.38;;;;;;;2.39;80.07;95202.47;5008090;28;20037;-61
2022/01/04 04:34:36;;;;;;;53.42;32.33;;;;;;;2.45;80.22;95192.97;5005558;28;20037;-60
2022/01/04 04:37:03;;;;;;;51.47;31.60;;;;;;;2.63;79.89;95212.81;4989339;28;20477;-61
2022/01/04 04:39:28;;;;;;;51.45;31.08;;;;;;;2.49;79.60;95182.66;5003133;28;20424;-61
2022/01/04 04:41:54;;;;;;;49.00;31.83;;;;;;;2.81;79.29;95225.91;5007599;28;20026;-61
2022/01/04 04:44:19;;;;;;;55.83;31.10;;;;;;;2.95;78.28;95228.84;5008005;28;20049;-61
2022/01/04 04:46:45;;;;;;;51.47;31.90;;;;;;;3.02;77.95;95230.34;5007812;28;20088;-62
2022/01/04 04:49:11;;;;;;;51.95;33.33;;;;;;;3.00;77.94;95237.22;5007636;28;20422;-61
2022/01/04 04:51:36;;;;;;;50.88;33.47;;;;;;;2.93;78.37;95222.97;5007375;28;20061;-62
2022/01/04 04:54:03;;;;;;;58.70;33.70;;;;;;;2.91;78.48;95214.53;5007758;28;20563;-61
2022/01/04 04:56:28;;;;;;;52.42;33.90;;;;;;;2.91;78.71;95217.09;5007843;28;20113;-62
2022/01/04 04:58:54;;;;;;;54.13;32.28;;;;;;;2.86;78.76;95227.41;5007764;28;20541;-61
2022/01/04 05:01:19;;;;;;;56.22;33.28;;;;;;;2.61;79.21;95190.81;5007914;28;20026;-61
2022/01/04 05:03:45;;;;;;;54.75;31.92;;;;;;;2.91;79.08;95219.63;5007638;28;20034;-61
2022/01/04 05:06:10;;;;;;;49.80;30.73;;;;;;;2.80;79.50;95201.28;5008200;28;20029;-61
2022/01/04 05:08:36;;;;;;;49.92;31.75;;;;;;;2.83;79.47;95230.03;5008441;28;20034;-60
2022/01/04 05:11:02;;;;;;;49.65;28.73;;;;;;;2.76;79.97;95231.94;5007934;28;20103;-60
2022/01/04 05:13:28;;;;;;;48.55;30.90;;;;;;;2.81;80.35;95231.00;5008029;28;20457;-60
2022/01/04 05:15:54;;;;;;;44.88;29.25;;;;;;;2.79;80.17;95214.91;5006588;28;20513;-60
2022/01/04 05:18:19;;;;;;;45.10;28.45;;;;;;;2.90;80.05;95228.16;5008303;28;20029;-61
2022/01/04 05:20:45;;;;;;;48.65;29.92;;;;;;;2.94;79.90;95228.03;5007924;28;20025;-60
2022/01/04 05:23:10;;;;;;;47.80;29.88;;;;;;;2.86;79.75;95213.84;5008500;28;20018;-61
2022/01/04 05:25:35;;;;;;;45.38;28.27;;;;;;;3.06;79.66;95221.72;5008292;28;20026;-61
2022/01/04 05:28:01;;;;;;;47.65;25.95;;;;;;;3.16;78.81;95213.81;5007402;28;20026;-61
2022/01/04 05:30:26;;;;;;;43.17;27.48;;;;;;;3.08;78.59;95189.41;5007872;28;20037;-61
2022/01/04 05:32:52;;;;;;;39.65;26.15;;;;;;;3.22;78.06;95199.16;5007669;28;20467;-61
2022/01/04 05:35:17;;;;;;;36.72;21.77;;;;;;;3.15;77.08;95194.28;5010904;28;20057;-61
2022/01/04 05:37:42;;;;;;;18.10;12.25;;;;;;;3.22;75.05;95200.88;5011642;28;20018;-61
2022/01/04 05:40:09;;;;;;;26.67;17.40;;;;;;;3.21;75.76;95211.94;5011035;28;20356;-61
2022/01/04 05:42:34;;;;;;;25.60;17.30;;;;;;;3.20;75.84;95212.81;5011367;28;20025;-62
2022/01/04 05:45:00;;;;;;;26.65;16.02;;;;;;;3.19;76.01;95206.06;5011578;28;20017;-61
2022/01/04 05:47:25;;;;;;;28.85;17.05;;;;;;;3.13;75.94;95185.00;5011233;28;20025;-62
2022/01/04 05:49:52;;;;;;;29.98;19.08;;;;;;;3.21;75.94;95206.84;5011142;28;20026;-61
2022/01/04 05:52:18;;;;;;;27.67;17.52;;;;;;;3.10;76.66;95195.28;5009530;28;20711;-62
2022/01/04 05:54:45;;;;;;;26.30;16.20;;;;;;;3.21;76.76;95199.19;5011363;28;20109;-62
2022/01/04 05:57:10;;;;;;;22.33;13.13;;;;;;;3.21;75.55;95184.72;5011016;28;20083;-60
2022/01/04 05:59:36;;;;;;;22.40;15.60;;;;;;;3.38;74.79;95203.75;5011109;28;20030;-62
2022/01/04 06:02:02;;;;;;;23.35;16.42;;;;;;;3.01;75.57;95164.97;5011203;28;20537;-60
2022/01/04 06:04:27;;;;;;;26.33;17.25;;;;;;;3.28;75.60;95205.75;5009980;28;20501;-60
2022/01/04 06:06:54;;;;;;;31.88;20.98;;;;;;;3.45;76.04;95210.34;5010688;28;20041;-61
2022/01/04 06:09:25;;;;;;;38.90;25.70;;;;;;;3.56;75.91;95205.72;5010963;28;20096;-60
2022/01/04 06:17:02;;;;;;;38.35;24.27;;;;;;;3.43;76.20;95182.34;5010579;28;20652;-61
2022/01/04 06:19:27;;;;;;;40.08;24.20;;;;;;;3.65;75.95;95205.41;5010687;28;20527;-61
2022/01/04 06:21:53;;;;;;;38.90;24.38;;;;;;;3.68;75.98;95209.59;5010670;28;20116;-62
2022/01/04 06:24:18;;;;;;;35.90;24.48;;;;;;;3.64;76.17;95210.56;5015186;28;20022;-61
2022/01/04 06:26:44;;;;;;;52.50;32.00;;;;;;;3.30;76.48;95153.03;5019277;28;20033;-61
2022/01/04 06:29:11;;;;;;;66.55;41.17;;;;;;;3.50;75.68;95200.81;5020569;28;20053;-61
2022/01/04 06:31:40;;;;;;;67.85;44.30;;;;;;;3.48;75.29;95202.59;5017023;28;20470;-61
2022/01/04 06:34:05;;;;;;;73.95;47.70;;;;;;;3.44;74.85;95194.22;5019160;28;20045;-62
2022/01/04 06:36:31;;;;;;;72.38;46.47;;;;;;;3.33;74.55;95190.31;5018514;28;20034;-61
2022/01/04 06:38:57;;;;;;;70.15;46.60;;;;;;;3.31;74.47;95198.88;5019851;28;20022;-60
2022/01/04 06:41:22;;;;;;;68.65;45.83;;;;;;;3.13;73.75;95176.50;5018693;28;20083;-62
2022/01/04 06:43:48;;;;;;;72.40;49.55;;;;;;;3.10;74.31;95200.38;5019686;28;20079;-61
2022/01/04 06:46:13;;;;;;;72.40;49.35;;;;;;;2.96;74.20;95181.28;5014203;28;20033;-61
2022/01/04 06:48:42;;;;;;;68.30;48.53;;;;;;;3.04;74.31;95200.56;5006884;28;20028;-60
2022/01/04 06:51:08;;;;;;;71.05;46.05;;;;;;;2.98;74.50;95188.00;5008729;28;20045;-62
2022/01/04 06:53:33;;;;;;;70.93;45.72;;;;;;;2.34;75.08;95107.56;5007889;28;20113;-61
2022/01/04 06:55:59;;;;;;;73.13;43.70;;;;;;;2.96;75.19;95199.94;5009103;28;20108;-61
2022/01/04 06:58:25;;;;;;;69.38;43.58;;;;;;;2.96;75.29;95194.84;5006344;28;20045;-62
2022/01/04 07:00:51;;;;;;;59.13;39.10;;;;;;;3.19;74.81;95203.50;5005521;28;20115;-62
2022/01/04 07:03:16;;;;;;;58.20;37.20;;;;;;;3.39;73.86;95193.50;5016944;28;20029;-62
2022/01/04 07:05:42;;;;;;;49.13;32.80;;;;;;;3.12;73.70;95152.75;5006209;28;20046;-61
2022/01/04 07:08:07;;;;;;;54.70;37.05;;;;;;;3.76;72.64;95207.63;5012527;28;20099;-60
2022/01/04 07:10:33;;;;;;;53.50;33.92;;;;;;;3.89;71.88;95199.53;5009986;28;20053;-56
2022/01/04 07:12:59;;;;;;;56.88;36.30;;;;;;;3.61;72.71;95210.69;5009347;28;20058;-55
2022/01/04 07:15:25;;;;;;;57.47;37.05;;;;;;;3.48;73.40;95205.16;5008720;28;20037;-60
2022/01/04 07:17:50;;;;;;;66.15;38.42;;;;;;;3.10;73.13;95134.13;5009566;28;20026;-59
2022/01/04 07:20:16;;;;;;;57.95;36.78;;;;;;;3.78;72.59;95192.28;5009529;28;20500;-66
2022/01/04 07:22:41;;;;;;;48.60;32.58;;;;;;;3.84;71.82;95167.38;5008750;28;20038;-59
2022/01/04 07:25:07;;;;;;;50.55;33.22;;;;;;;4.24;71.13;95199.16;5009116;28;20026;-61
2022/01/04 07:27:33;;;;;;;51.05;35.67;;;;;;;4.31;70.19;95206.59;5006550;28;20045;-58
2022/01/04 07:29:59;;;;;;;47.72;32.80;;;;;;;4.49;69.81;95200.00;5009484;28;20033;-58
2022/01/04 07:32:25;;;;;;;50.25;32.28;;;;;;;4.68;69.52;95195.06;5009589;28;20112;-55
2022/01/04 07:34:50;;;;;;;51.92;33.83;;;;;;;4.57;69.08;95192.91;5009255;28;20026;-62
2022/01/04 07:37:16;;;;;;;51.90;33.60;;;;;;;4.41;69.62;95197.72;5007947;28;20485;-60
2022/01/04 07:39:42;;;;;;;49.15;32.00;;;;;;;4.54;69.16;95187.91;5008982;28;20101;-59
2022/01/04 07:42:07;;;;;;;51.85;33.20;;;;;;;4.69;68.35;95161.81;5009231;28;20088;-58
2022/01/04 07:44:33;;;;;;;47.17;31.92;;;;;;;4.93;66.98;95151.53;5009373;28;20113;-58
2022/01/04 07:46:59;;;;;;;51.38;32.20;;;;;;;5.18;66.86;95163.34;5007622;28;20038;-60
2022/01/04 07:49:25;;;;;;;46.17;31.08;;;;;;;5.26;66.52;95172.41;5009002;28;20103;-65
2022/01/04 07:51:50;;;;;;;47.53;28.88;;;;;;;5.14;66.29;95158.34;5008505;28;20091;-58
2022/01/04 07:54:16;;;;;;;45.03;28.75;;;;;;;5.12;66.33;95195.13;5008880;28;20061;-60
2022/01/04 07:56:41;;;;;;;39.67;27.45;;;;;;;5.24;66.40;95197.19;5008717;28;20069;-60
2022/01/04 07:59:07;;;;;;;39.83;27.08;;;;;;;5.37;66.61;95194.16;5008947;28;20101;-59
2022/01/04 08:01:33;;;;;;;37.33;23.92;;;;;;;5.11;66.36;95157.66;5009047;28;20041;-59
2022/01/04 08:04:00;;;;;;;42.75;26.13;;;;;;;5.48;65.57;95184.34;5008344;28;20029;-63
2022/01/04 08:06:26;;;;;;;37.35;24.83;;;;;;;5.55;64.68;95141.44;5006881;28;20030;-60
2022/01/04 08:08:51;;;;;;;42.63;26.38;;;;;;;5.89;64.33;95176.69;5008399;28;20050;-65
2022/01/04 08:11:18;;;;;;;40.22;25.02;;;;;;;5.81;64.18;95155.69;5008870;28;20049;-64
2022/01/04 08:13:44;;;;;;;44.00;27.10;;;;;;;6.06;64.17;95179.38;5009098;28;20092;-67
2022/01/04 08:16:09;;;;;;;42.08;28.70;;;;;;;5.98;64.08;95149.88;5008289;28;20476;-63
2022/01/04 08:18:35;;;;;;;52.03;29.15;;;;;;;6.27;63.43;95166.53;5008783;28;20477;-59
2022/01/04 08:21:03;;;;;;;46.60;29.23;;;;;;;6.71;62.12;95186.81;5008759;28;20481;-65
2022/01/04 08:23:30;;;;;;;37.60;25.45;;;;;;;6.75;61.65;95166.97;5008607;28;20033;-64
2022/01/04 08:25:56;;;;;;;32.70;23.70;;;;;;;7.66;59.20;95149.88;5008226;28;20029;-61
2022/01/04 08:28:22;;;;;;;33.30;22.52;;;;;;;9.55;53.96;95163.03;5008377;28;20112;-64
2022/01/04 08:30:47;;;;;;;35.50;22.80;;;;;;;10.21;51.53;95165.31;5008716;28;20054;-62
2022/01/04 08:33:14;;;;;;;35.97;23.50;;;;;;;10.64;50.66;95160.16;5008491;28;20553;-64
2022/01/04 08:35:39;;;;;;;40.35;23.98;;;;;;;9.87;50.99;95106.28;5008109;28;20026;-65
2022/01/04 08:38:06;;;;;;;30.90;23.50;;;;;;;10.22;51.05;95148.94;5007788;28;20088;-64
2022/01/04 08:40:32;;;;;;;36.90;24.58;;;;;;;11.05;48.56;95143.88;5008270;28;20445;-66
2022/01/04 08:42:57;;;;;;;30.02;22.50;;;;;;;11.24;47.25;95145.31;5008237;28;20064;-62
2022/01/04 08:45:24;;;;;;;29.40;22.08;;;;;;;10.70;48.21;95141.75;5008595;28;20102;-63
2022/01/04 08:47:51;;;;;;;33.63;23.35;;;;;;;10.69;48.54;95140.09;5008323;28;20040;-61
2022/01/04 08:50:18;;;;;;;32.83;22.88;;;;;;;10.50;48.67;95137.81;5007569;28;20493;-59
2022/01/04 08:52:44;;;;;;;42.65;24.60;;;;;;;10.06;50.11;95116.31;5007531;28;20033;-64
2022/01/04 08:55:10;;;;;;;38.80;28.67;;;;;;;10.99;48.40;95145.09;5008599;28;20025;-62
2022/01/04 08:57:36;;;;;;;35.80;25.52;;;;;;;11.58;46.46;95144.78;5006614;28;20049;-60
2022/01/04 09:00:04;;;;;;;36.90;25.55;;;;;;;11.60;45.89;95136.94;5008390;28;20428;-59
2022/01/04 09:02:32;;;;;;;35.95;23.40;;;;;;;11.76;45.46;95137.59;5008107;28;20112;-58
2022/01/04 09:04:59;;;;;;;34.78;24.88;;;;;;;11.13;46.58;95133.91;5007541;28;20022;-56
2022/01/04 09:07:25;;;;;;;35.53;25.08;;;;;;;12.35;44.42;95128.56;5007574;28;20083;-58
2022/01/04 09:09:50;;;;;;;30.75;22.20;;;;;;;13.32;42.12;95118.38;5011147;28;20464;-59
2022/01/04 09:12:17;;;;;;;27.13;21.55;;;;;;;14.38;40.09;95115.72;5011854;28;20045;-61
2022/01/04 09:15:06;;;;;;;37.55;23.40;;;;;;;15.30;37.81;95114.66;5012073;28;20049;-61
2022/01/04 09:20:16;;;;;;;34.10;24.10;;;;;;;17.94;33.07;95101.78;5011911;28;20041;-59
2022/01/04 09:22:42;;;;;;;31.70;24.30;;;;;;;18.97;31.00;95094.03;5011887;28;20121;-60
2022/01/04 09:25:09;;;;;;;32.67;24.52;;;;;;;19.62;29.54;95085.97;5011672;28;20037;-64
2022/01/04 09:27:35;;;;;;;31.60;24.20;;;;;;;20.42;28.70;95079.84;5010958;28;20048;-61
2022/01/04 09:30:04;;;;;;;37.83;26.30;;;;;;;22.02;26.18;95057.09;5012015;28;20045;-58
2022/01/04 09:32:32;;;;;;;30.50;25.80;;;;;;;22.75;24.38;95061.34;5012183;28;20041;-62
2022/01/04 09:34:58;;;;;;;30.73;24.83;;;;;;;22.18;25.07;95053.63;5011146;28;20026;-59
2022/01/04 09:37:24;;;;;;;32.88;26.63;;;;;;;22.39;24.21;95040.78;5006738;28;20434;-57
2022/01/04 09:39:50;;;;;;;35.13;25.95;;;;;;;22.49;24.36;95043.22;4991704;28;20101;-60
2022/01/04 09:42:16;;;;;;;32.55;26.48;;;;;;;22.22;24.83;95039.19;4991923;28;20477;-59
2022/01/04 09:44:42;;;;;;;31.35;26.00;;;;;;;22.78;24.45;95017.34;4991864;28;20118;-56
2022/01/04 09:47:08;;;;;;;36.05;27.08;;;;;;;24.37;22.92;95031.59;5002046;28;20037;-60
2022/01/04 09:49:33;;;;;;;32.55;27.75;;;;;;;24.83;21.51;95012.13;5011002;28;20025;-68
2022/01/04 09:52:00;;;;;;;33.03;26.00;;;;;;;24.94;20.99;95032.72;5010800;28;20022;-58
2022/01/04 09:54:26;;;;;;;34.55;27.30;;;;;;;25.72;20.35;95025.00;5010873;28;20034;-58
2022/01/04 09:56:53;;;;;;;31.42;27.60;;;;;;;26.13;20.01;95021.69;5011207;28;20132;-59
2022/01/04 09:59:19;;;;;;;31.67;26.60;;;;;;;25.19;20.81;95009.47;5010685;28;20406;-60
2022/01/04 10:01:50;;;;;;;32.95;26.67;;;;;;;25.34;20.72;95000.72;5010700;28;20038;-58
2022/01/04 10:04:15;;;;;;;;;;;;;;;24.66;21.37;94998.31;5010534;28;20114;-62
2022/01/04 10:06:56;;;;;;;32.17;27.38;;;;;;;25.17;21.14;94995.66;5010506;28;19967;-61
2022/01/04 10:09:33;;;;;;;;;;;;;;;26.48;19.74;94986.50;5011210;28;20045;-60
2022/01/04 10:11:59;;;;;;;31.48;23.25;;;;;;;26.80;19.12;94994.81;5010593;28;19910;-61
2022/01/04 10:14:39;;;;;;;29.15;24.13;;;;;;;27.25;18.79;94980.09;5010513;28;20109;-59
2022/01/04 10:17:14;;;;;;;29.48;24.70;;;;;;;27.70;18.32;94976.88;5010516;28;20521;-59
2022/01/04 10:19:44;;;;;;;25.77;22.42;;;;;;;28.59;17.92;94972.88;5010572;28;20454;-58
2022/01/04 10:22:25;;;;;;;28.55;24.23;;;;;;;29.01;16.85;94964.53;5010491;28;20036;-59
2022/01/04 10:25:03;;;;;;;32.45;23.58;;;;;;;29.58;16.75;94959.28;5010177;28;20018;-61
2022/01/04 10:27:30;;;;;;;26.77;21.52;;;;;;;29.77;16.10;94956.66;5009882;28;20045;-57
2022/01/04 10:30:28;;;;;;;24.58;21.92;;;;;;;29.45;16.33;94952.22;5010181;28;20386;-60
2022/01/04 10:33:11;;;;;;;25.77;21.05;;;;;;;29.82;15.70;94944.38;5010214;28;20282;-59
2022/01/04 10:35:41;;;;;;;27.13;22.02;;;;;;;29.99;15.56;94930.50;5009668;28;20593;-62
2022/01/04 10:38:20;;;;;;;25.90;23.05;;;;;;;29.61;15.91;94936.75;5009972;28;20396;-63
2022/01/04 10:40:57;;;;;;;26.23;20.70;;;;;;;29.91;15.67;94934.28;5009673;28;20398;-65
2022/01/04 10:43:27;;;;;;;28.13;23.63;;;;;;;30.90;14.68;94933.38;5010273;28;20119;-66
2022/01/04 10:45:54;;;;;;;;;;;;;;;31.29;14.47;94931.22;5010631;28;20030;-62
2022/01/04 10:48:23;;;;;;;29.35;24.80;;;;;;;30.20;15.43;94935.38;5009435;28;19979;-64
2022/01/04 10:50:58;;;;;;;26.90;21.63;;;;;;;30.59;15.04;94916.56;5008222;28;20488;-63
2022/01/04 10:53:29;;;;;;;26.83;22.60;;;;;;;29.67;15.55;94923.41;5006054;28;20280;-65
2022/01/04 10:56:01;;;;;;;27.48;22.98;;;;;;;30.21;15.72;94928.25;5006712;28;20044;-63
2022/01/04 10:58:30;;;;;;;28.45;24.30;;;;;;;30.60;14.99;94923.53;5006626;28;20513;-63
2022/01/04 11:00:59;;;;;;;35.13;23.90;;;;;;;30.86;14.60;94916.22;5006945;28;20546;-63
2022/01/04 11:03:27;;;;;;;29.60;23.88;;;;;;;30.90;14.73;94922.72;5006007;28;20433;-65
2022/01/04 11:05:58;;;;;;;25.98;22.40;;;;;;;29.95;15.36;94913.38;5001408;28;20061;-60
2022/01/04 11:08:24;;;;;;;32.17;24.77;;;;;;;29.74;15.71;94915.38;5003602;28;20029;-65
2022/01/04 11:10:50;;;;;;;26.27;22.17;;;;;;;27.45;17.67;94927.19;5005989;28;20033;-64
2022/01/04 11:13:16;;;;;;;29.50;24.17;;;;;;;25.61;19.24;94904.06;5006833;28;20080;-64
2022/01/04 11:15:42;;;;;;;21.33;18.40;;;;;;;24.17;20.83;94912.75;5008096;28;20422;-66
2022/01/04 11:18:08;;;;;;;21.60;17.95;;;;;;;23.13;21.77;94922.13;5007690;28;20670;-65
2022/01/04 11:20:38;;;;;;;27.55;21.55;;;;;;;21.99;23.45;94894.69;5008847;28;20159;-67
2022/01/04 11:23:04;;;;;;;29.67;22.97;;;;;;;22.72;22.65;94887.41;5008043;28;20492;-63
2022/01/04 11:25:30;;;;;;;28.58;23.80;;;;;;;21.84;23.89;94912.91;5008751;28;20435;-62
2022/01/04 11:27:57;;;;;;;28.00;23.63;;;;;;;23.06;22.29;94892.25;5008923;28;20159;-63
2022/01/04 11:31:00;;;;;;;30.80;24.95;;;;;;;23.30;22.28;94899.16;5008731;28;20496;-61
2022/01/04 11:33:29;;;;;;;30.52;24.35;;;;;;;23.08;22.60;94892.13;5008680;28;20633;-58